Time;durP1;ratioP1;P1;durP2;ratioP2;P2;SDS_P1;SDS_P2;PMS_P1;PMS_P2;Temp;Humidity;BMP_temperature;BMP_pressure;BME280_temperature;BME280_humidity;BME280_pressure;Samples;Min_cycle;Max_cycle;Signal;HPM_P1;HPM_P2
2023/06/16 00:01:13;;;;;;;13.23;10.97;;;16.40;67.90;;;;;;5092885;28;20948;-69
2023/06/16 00:03:41;;;;;;;11.03;10.00;;;16.50;77.90;;;;;;5093541;28;20499;-70
2023/06/16 00:06:14;;;;;;;12.63;11.37;;;16.50;87.70;;;;;;5093556;28;20900;-68
2023/06/16 00:08:45;;;;;;;11.43;9.80;;;16.40;85.10;;;;;;5092563;28;20431;-68
2023/06/16 00:11:15;;;;;;;10.13;9.23;;;16.30;89.20;;;;;;5092639;28;20404;-71
2023/06/16 00:13:42;;;;;;;9.73;8.93;;;16.30;94.40;;;;;;5092425;28;20432;-69
2023/06/16 00:16:09;;;;;;;10.13;9.33;;;16.30;94.40;;;;;;5093474;28;20787;-70
2023/06/16 00:18:36;;;;;;;12.57;11.37;;;16.30;94.30;;;;;;5093434;28;20405;-71
2023/06/16 00:21:02;;;;;;;13.53;9.50;;;16.40;96.10;;;;;;5092631;28;20462;-70
2023/06/16 00:23:29;;;;;;;16.47;12.53;;;16.40;99.90;;;;;;5093098;28;20420;-70
2023/06/16 00:25:56;;;;;;;13.50;12.23;;;16.50;99.90;;;;;;5074464;28;20490;-71
2023/06/16 00:28:22;;;;;;;13.50;12.10;;;16.50;99.90;;;;;;5092783;28;20428;-69
2023/06/16 00:30:48;;;;;;;12.67;11.23;;;16.60;99.90;;;;;;5092336;28;20404;-69
2023/06/16 00:33:15;;;;;;;13.50;11.00;;;16.60;99.90;;;;;;5093147;28;20483;-71
2023/06/16 00:35:43;;;;;;;13.10;8.50;;;16.60;99.90;;;;;;5092548;28;20268;-70
2023/06/16 00:38:08;;;;;;;10.53;8.43;;;16.60;99.90;;;;;;5093164;28;20423;-69
2023/06/16 00:40:34;;;;;;;10.20;9.23;;;16.60;99.90;;;;;;5092183;28;20451;-70
2023/06/16 00:43:02;;;;;;;10.50;9.43;;;16.50;99.90;;;;;;5091096;28;20435;-70
2023/06/16 00:45:29;;;;;;;10.93;9.83;;;16.50;99.90;;;;;;5092185;28;20510;-69
2023/06/16 00:47:56;;;;;;;10.50;8.50;;;16.50;99.90;;;;;;5092963;28;20422;-71
2023/06/16 00:50:23;;;;;;;10.77;8.87;;;16.60;99.90;;;;;;5092380;28;20906;-69
2023/06/16 00:52:50;;;;;;;11.70;9.03;;;16.60;99.90;;;;;;5092935;28;20494;-69
2023/06/16 00:55:21;;;;;;;9.80;8.80;;;16.60;99.90;;;;;;5093011;28;20414;-71
2023/06/16 00:57:49;;;;;;;9.73;8.83;;;16.60;99.90;;;;;;5092358;28;20451;-71
2023/06/16 01:00:15;;;;;;;10.17;9.10;;;16.60;99.90;;;;;;5091196;28;20471;-70
2023/06/16 01:02:44;;;;;;;9.20;8.40;;;16.60;99.90;;;;;;5091500;28;20435;-71
2023/06/16 01:05:12;;;;;;;14.37;8.93;;;16.50;99.90;;;;;;5092997;28;20462;-68
2023/06/16 01:07:50;;;;;;;11.67;10.20;;;16.50;99.90;;;;;;5092813;28;20888;-69
2023/06/16 01:10:48;;;;;;;11.10;10.00;;;16.50;99.90;;;;;;5091966;28;20403;-68
2023/06/16 01:13:21;;;;;;;10.03;9.00;;;16.50;99.90;;;;;;5057467;28;20467;-69
2023/06/16 01:15:48;;;;;;;12.27;9.40;;;16.40;99.90;;;;;;5059606;28;20518;-70
2023/06/16 01:18:18;;;;;;;15.73;8.83;;;16.50;99.90;;;;;;5092748;28;20410;-70
2023/06/16 01:21:24;;;;;;;11.33;8.60;;;16.50;99.90;;;;;;5091872;28;20479;-71
2023/06/16 01:24:03;;;;;;;12.40;9.37;;;16.50;99.90;;;;;;5091846;28;20510;-70
2023/06/16 01:26:44;;;;;;;9.73;8.63;;;16.50;99.90;;;;;;5096016;28;20426;-69
2023/06/16 01:29:13;;;;;;;9.70;8.80;;;16.50;99.90;;;;;;5096604;28;20427;-70
2023/06/16 01:34:33;;;;;;;9.30;8.40;;;16.40;99.90;;;;;;5074236;28;20511;-68
2023/06/16 01:37:01;;;;;;;9.77;8.73;;;16.40;99.90;;;;;;5096430;28;20408;-68
2023/06/16 01:39:29;;;;;;;9.93;8.70;;;16.40;99.90;;;;;;5095724;28;20808;-71
2023/06/16 01:41:55;;;;;;;9.10;7.83;;;16.40;99.90;;;;;;5075718;28;20423;-70
2023/06/16 01:44:22;;;;;;;10.37;9.13;;;16.40;99.90;;;;;;5095491;28;20526;-68
2023/06/16 01:46:48;;;;;;;9.60;7.80;;;16.40;99.90;;;;;;5096183;28;20406;-69
2023/06/16 01:49:15;;;;;;;11.27;8.70;;;16.40;99.90;;;;;;5096277;28;20415;-69
2023/06/16 01:51:41;;;;;;;10.60;7.33;;;16.40;99.90;;;;;;5095453;28;20764;-69
2023/06/16 01:54:08;;;;;;;9.20;8.37;;;16.30;99.90;;;;;;5077836;28;20459;-69
2023/06/16 01:56:34;;;;;;;9.37;8.47;;;16.30;99.90;;;;;;5095562;28;20892;-71
2023/06/16 01:59:00;;;;;;;8.27;7.50;;;16.10;98.00;;;;;;5068299;28;20429;-68
2023/06/16 02:01:30;;;;;;;7.63;6.83;;;16.10;99.50;;;;;;5074273;28;20408;-70
2023/06/16 02:03:59;;;;;;;8.60;7.53;;;16.10;99.90;;;;;;5057382;28;20436;-69
2023/06/16 02:06:37;;;;;;;8.27;7.47;;;16.00;99.90;;;;;;5076730;28;20419;-71
2023/06/16 02:09:05;;;;;;;9.40;8.50;;;16.00;99.90;;;;;;5095293;28;20470;-68
2023/06/16 02:11:33;;;;;;;9.33;6.93;;;16.00;99.90;;;;;;5076822;28;20411;-69
2023/06/16 02:13:59;;;;;;;7.23;6.50;;;15.90;99.90;;;;;;5095699;28;20916;-68
2023/06/16 02:16:25;;;;;;;7.10;6.50;;;15.90;99.90;;;;;;5095588;28;20442;-70
2023/06/16 02:19:33;;;;;;;8.60;6.90;;;15.90;99.90;;;;;;5095598;28;20404;-68
2023/06/16 02:22:00;;;;;;;8.23;7.43;;;15.90;99.90;;;;;;5076486;28;20427;-70
2023/06/16 02:24:26;;;;;;;6.93;6.40;;;15.90;99.90;;;;;;5095120;28;20420;-71
2023/06/16 02:26:52;;;;;;;7.77;7.17;;;15.90;99.90;;;;;;5095556;28;20396;-68
2023/06/16 02:29:18;;;;;;;8.03;7.33;;;15.90;99.90;;;;;;5095535;28;20802;-70
2023/06/16 02:31:48;;;;;;;9.00;8.20;;;16.00;99.90;;;;;;5094595;28;20494;-70
2023/06/16 02:34:15;;;;;;;8.03;7.23;;;15.80;99.90;;;;;;5095331;28;20194;-70
2023/06/16 02:36:41;;;;;;;9.30;8.37;;;15.90;99.90;;;;;;5090563;28;20436;-70
2023/06/16 02:39:07;;;;;;;11.23;8.20;;;15.80;99.90;;;;;;5069880;28;20471;-71
2023/06/16 02:41:34;;;;;;;8.40;7.70;;;15.70;99.90;;;;;;5073896;28;20435;-69
2023/06/16 02:44:00;;;;;;;8.83;7.93;;;15.70;99.90;;;;;;5074700;28;20206;-70
2023/06/16 02:46:33;;;;;;;8.63;7.80;;;15.60;99.90;;;;;;5074846;28;20409;-68
2023/06/16 02:48:59;;;;;;;9.17;7.77;;;15.60;99.90;;;;;;5061833;28;20432;-68
2023/06/16 02:51:25;;;;;;;8.87;8.07;;;15.70;99.90;;;;;;5094124;28;20763;-70
2023/06/16 02:53:51;;;;;;;9.50;8.63;;;15.60;99.90;;;;;;5094964;28;20824;-70
2023/06/16 02:56:17;;;;;;;10.40;8.97;;;15.60;99.90;;;;;;5093938;28;20174;-68
2023/06/16 02:58:43;;;;;;;8.60;7.60;;;15.60;99.90;;;;;;5094691;28;20400;-69
2023/06/16 03:01:09;;;;;;;9.43;8.60;;;15.60;99.90;;;;;;5093873;28;20462;-69
2023/06/16 03:03:36;;;;;;;10.83;9.10;;;15.60;99.90;;;;;;5071898;28;20543;-68
2023/06/16 03:06:02;;;;;;;9.27;8.03;;;15.60;99.90;;;;;;5074496;28;20167;-68
2023/06/16 03:08:28;;;;;;;12.13;8.50;;;15.50;99.90;;;;;;5074614;28;20397;-68
2023/06/16 03:10:54;;;;;;;9.63;8.83;;;15.40;99.90;;;;;;5073357;28;20627;-71
2023/06/16 03:13:20;;;;;;;8.67;7.87;;;15.30;99.90;;;;;;5089363;28;20482;-68
2023/06/16 03:15:46;;;;;;;12.00;8.40;;;15.20;99.90;;;;;;5093775;28;20492;-69
2023/06/16 03:18:12;;;;;;;11.67;7.97;;;15.30;99.90;;;;;;5093738;28;20181;-69
2023/06/16 03:20:40;;;;;;;15.60;8.60;;;15.30;99.90;;;;;;5093412;28;21004;-71
2023/06/16 03:23:05;;;;;;;14.30;11.00;;;15.30;99.90;;;;;;5094330;28;20431;-70
2023/06/16 03:25:32;;;;;;;12.20;10.90;;;15.30;99.90;;;;;;5094353;28;20826;-68
2023/06/16 03:27:59;;;;;;;12.83;11.53;;;15.30;99.90;;;;;;5076107;28;20170;-69
2023/06/16 03:30:27;;;;;;;12.47;9.50;;;15.40;99.90;;;;;;5093390;28;20544;-69
2023/06/16 03:33:16;;;;;;;12.37;10.97;;;15.40;99.90;;;;;;5093149;28;20873;-69
2023/06/16 03:35:42;;;;;;;11.77;10.57;;;15.40;99.90;;;;;;5083617;28;20777;-68
2023/06/16 03:38:08;;;;;;;13.10;11.80;;;15.40;99.90;;;;;;5094090;28;20480;-68
2023/06/16 03:40:45;;;;;;;14.00;12.50;;;15.50;99.90;;;;;;5093061;28;20832;-71
2023/06/16 03:43:33;;;;;;;14.70;12.17;;;15.40;99.90;;;;;;5075608;28;20189;-70
2023/06/16 03:45:59;;;;;;;13.87;12.23;;;15.40;99.90;;;;;;5093264;28;20431;-69
2023/06/16 03:48:25;;;;;;;12.93;11.30;;;15.40;99.90;;;;;;5075284;28;20439;-68
2023/06/16 03:50:52;;;;;;;12.70;11.50;;;15.40;99.90;;;;;;5092942;28;20505;-69
2023/06/16 03:53:19;;;;;;;14.00;12.50;;;15.40;99.90;;;;;;5092783;28;20189;-69
2023/06/16 03:55:47;;;;;;;14.10;12.70;;;15.40;99.90;;;;;;5093850;28;20411;-68
2023/06/16 03:58:16;;;;;;;14.17;12.00;;;15.50;99.90;;;;;;5093771;28;20830;-69
2023/06/16 04:00:43;;;;;;;12.97;11.70;;;15.50;99.90;;;;;;5073552;28;20870;-68
2023/06/16 04:03:10;;;;;;;13.93;12.37;;;15.50;99.90;;;;;;5093626;28;20427;-69
2023/06/16 04:05:36;;;;;;;14.40;12.37;;;15.50;99.90;;;;;;5075498;28;20412;-69
2023/06/16 04:08:02;;;;;;;13.97;11.97;;;15.50;99.90;;;;;;5093636;28;20898;-68
2023/06/16 04:10:28;;;;;;;14.77;12.60;;;15.50;99.90;;;;;;5073852;28;20446;-70
2023/06/16 04:12:53;;;;;;;14.43;12.87;;;15.50;99.90;;;;;;5074712;28;20662;-71
2023/06/16 04:15:19;;;;;;;15.07;13.67;;;15.50;99.90;;;;;;5091641;28;20177;-71
2023/06/16 04:17:46;;;;;;;14.43;12.97;;;15.50;99.90;;;;;;5093525;28;20256;-70
2023/06/16 04:20:13;;;;;;;14.80;13.30;;;15.50;99.90;;;;;;5091723;28;20459;-70
2023/06/16 04:22:40;;;;;;;14.60;13.20;;;15.50;99.90;;;;;;5093365;28;20400;-69
2023/06/16 04:25:09;;;;;;;18.43;12.70;;;15.50;99.90;;;;;;5093438;28;20768;-71
2023/06/16 04:27:36;;;;;;;14.97;13.37;;;15.50;99.90;;;;;;5074138;28;20427;-69
2023/06/16 04:30:05;;;;;;;16.03;13.37;;;15.60;99.90;;;;;;5092263;28;20415;-68
2023/06/16 04:32:36;;;;;;;17.90;13.70;;;15.60;99.90;;;;;;5093258;28;20507;-70
2023/06/16 04:35:06;;;;;;;14.77;13.07;;;15.50;99.90;;;;;;5093196;28;20419;-70
2023/06/16 04:37:32;;;;;;;19.13;13.50;;;15.50;99.90;;;;;;5093057;28;20415;-68
2023/06/16 04:39:59;;;;;;;18.50;16.17;;;15.50;99.90;;;;;;5092136;28;20447;-69
2023/06/16 04:42:25;;;;;;;14.57;13.00;;;15.40;99.90;;;;;;5092615;28;20802;-70
2023/06/16 04:44:50;;;;;;;15.33;12.53;;;15.50;99.90;;;;;;5092716;28;20855;-68
2023/06/16 04:47:17;;;;;;;20.17;15.80;;;15.50;99.90;;;;;;5092329;28;20399;-71
2023/06/16 04:49:43;;;;;;;20.63;14.00;;;15.50;99.90;;;;;;5092458;28;20208;-68
2023/06/16 04:52:09;;;;;;;20.07;14.03;;;15.60;99.90;;;;;;5092108;28;20431;-68
2023/06/16 04:54:35;;;;;;;16.07;14.43;;;15.60;99.90;;;;;;5090234;28;20534;-70
2023/06/16 04:57:01;;;;;;;17.77;13.93;;;15.60;99.90;;;;;;5056278;28;21033;-70
2023/06/16 04:59:27;;;;;;;16.57;14.97;;;15.60;99.90;;;;;;5057430;28;20235;-71
2023/06/16 05:01:53;;;;;;;16.13;14.40;;;15.60;99.90;;;;;;5075899;28;20868;-71
2023/06/16 05:04:19;;;;;;;16.87;15.17;;;15.70;99.90;;;;;;5076789;28;20420;-68
2023/06/16 05:06:45;;;;;;;17.67;15.80;;;15.70;99.90;;;;;;5075919;28;20403;-70
2023/06/16 05:09:32;;;;;;;17.80;14.57;;;15.70;99.90;;;;;;5076853;28;20173;-69
2023/06/16 05:11:58;;;;;;;19.90;15.87;;;15.70;99.90;;;;;;5094066;28;20173;-70
2023/06/16 05:14:24;;;;;;;17.97;14.37;;;15.70;99.90;;;;;;5097040;28;20912;-70
2023/06/16 05:16:50;;;;;;;20.10;17.07;;;15.60;99.90;;;;;;5096886;28;20641;-68
2023/06/16 05:19:15;;;;;;;19.57;16.20;;;15.60;98.80;;;;;;5096773;28;20193;-71
2023/06/16 05:21:42;;;;;;;20.33;16.50;;;15.50;96.90;;;;;;5095855;28;20252;-70
2023/06/16 05:24:08;;;;;;;19.77;16.83;;;15.50;99.90;;;;;;5095824;28;20720;-69
2023/06/16 05:26:34;;;;;;;21.70;17.10;;;15.40;99.90;;;;;;5095804;28;20431;-70
2023/06/16 05:28:59;;;;;;;21.57;17.43;;;15.50;99.90;;;;;;5096712;28;20415;-68
2023/06/16 05:31:25;;;;;;;21.90;17.70;;;15.40;99.90;;;;;;5095678;28;20452;-67
2023/06/16 05:33:51;;;;;;;18.27;15.80;;;15.50;99.90;;;;;;5095621;28;20458;-68
2023/06/16 05:36:17;;;;;;;19.83;16.70;;;15.40;99.90;;;;;;5095760;28;20188;-70
2023/06/16 05:38:44;;;;;;;22.33;15.50;;;15.40;99.90;;;;;;5096465;28;20162;-69
2023/06/16 05:41:24;;;;;;;18.70;16.23;;;15.50;99.90;;;;;;5094510;28;20190;-69
2023/06/16 05:44:34;;;;;;;21.03;17.30;;;15.50;99.90;;;;;;5095988;28;20466;-66
2023/06/16 05:47:03;;;;;;;18.70;16.47;;;15.50;99.90;;;;;;5096341;28;20876;-67
2023/06/16 05:49:29;;;;;;;19.33;17.17;;;15.40;99.90;;;;;;5095325;28;20437;-70
2023/06/16 05:51:57;;;;;;;17.27;15.57;;;15.40;99.90;;;;;;5093746;28;20431;-69
2023/06/16 05:54:26;;;;;;;20.37;16.93;;;15.40;99.90;;;;;;5085709;28;20502;-67
2023/06/16 05:56:52;;;;;;;18.80;15.60;;;15.40;99.90;;;;;;5075670;28;20404;-71
2023/06/16 05:59:18;;;;;;;20.53;17.33;;;15.40;99.90;;;;;;5092210;28;21039;-67
2023/06/16 06:01:43;;;;;;;19.73;17.50;;;15.40;99.90;;;;;;5095304;28;20166;-68
2023/06/16 06:04:12;;;;;;;22.30;16.40;;;15.50;99.90;;;;;;5095072;28;20198;-67
2023/06/16 06:06:38;;;;;;;21.00;17.37;;;15.60;99.90;;;;;;5095950;28;20168;-67
2023/06/16 06:09:04;;;;;;;24.60;17.57;;;15.70;99.90;;;;;;5096049;28;20404;-67
2023/06/16 06:11:31;;;;;;;21.67;17.47;;;15.70;99.90;;;;;;5076208;28;20408;-67
2023/06/16 06:13:57;;;;;;;17.83;15.93;;;15.80;99.90;;;;;;5094869;28;20444;-67
2023/06/16 06:16:23;;;;;;;17.57;15.80;;;16.00;99.90;;;;;;5077901;28;20443;-67
2023/06/16 06:18:50;;;;;;;17.93;15.40;;;16.10;99.90;;;;;;5094858;28;20479;-67
2023/06/16 06:21:19;;;;;;;17.70;15.80;;;16.10;99.90;;;;;;5094724;28;20454;-68
2023/06/16 06:23:56;;;;;;;18.83;16.77;;;16.10;99.90;;;;;;5077460;28;20423;-68
2023/06/16 06:26:22;;;;;;;18.93;16.83;;;16.00;99.90;;;;;;5075566;28;20419;-67
2023/06/16 06:28:48;;;;;;;21.93;16.93;;;16.00;99.90;;;;;;5101898;28;20937;-68
2023/06/16 06:31:43;;;;;;;21.13;17.20;;;16.00;99.90;;;;;;5074352;28;20185;-72
2023/06/16 06:34:09;;;;;;;19.17;17.10;;;16.20;99.90;;;;;;5066081;28;20289;-69
2023/06/16 06:36:39;;;;;;;23.70;18.10;;;16.30;99.90;;;;;;5094365;28;20462;-69
2023/06/16 06:39:08;;;;;;;20.00;16.67;;;16.40;99.90;;;;;;5095356;28;20406;-67
2023/06/16 06:41:40;;;;;;;20.43;17.10;;;16.40;99.90;;;;;;5094351;28;20491;-70
2023/06/16 06:44:06;;;;;;;19.03;16.63;;;16.50;99.90;;;;;;5095015;28;20458;-68
2023/06/16 06:46:32;;;;;;;19.20;16.37;;;16.60;99.90;;;;;;5094187;28;20427;-69
2023/06/16 06:48:58;;;;;;;17.67;15.90;;;16.60;99.90;;;;;;5093709;28;20514;-69
2023/06/16 06:51:27;;;;;;;19.47;16.47;;;16.70;99.90;;;;;;5094177;28;20490;-68
2023/06/16 06:53:56;;;;;;;18.90;16.03;;;16.80;99.90;;;;;;5094209;28;20186;-70
2023/06/16 06:56:22;;;;;;;17.20;15.30;;;16.80;99.90;;;;;;5094886;28;20395;-70
2023/06/16 06:58:48;;;;;;;17.90;15.83;;;16.80;99.90;;;;;;5094856;28;20889;-70
2023/06/16 07:01:14;;;;;;;16.97;14.63;;;16.90;99.90;;;;;;5091888;28;20465;-71
2023/06/16 07:03:41;;;;;;;17.87;16.10;;;16.90;99.90;;;;;;5094770;28;20511;-70
2023/06/16 07:06:07;;;;;;;19.30;17.00;;;17.00;99.90;;;;;;5076678;28;20412;-70
2023/06/16 07:08:35;;;;;;;20.90;16.40;;;17.00;99.90;;;;;;5094688;28;20479;-70
2023/06/16 07:11:01;;;;;;;19.47;15.70;;;17.10;99.90;;;;;;5075922;28;20426;-69
2023/06/16 07:13:40;;;;;;;;;;;;;;;;;;;;;
2023/06/16 07:16:19;;;;;;;26.73;15.60;;;17.10;99.90;;;;;;5093029;28;20453;-69
2023/06/16 07:18:46;;;;;;;17.83;15.90;;;17.10;99.90;;;;;;5093857;28;20959;-70
2023/06/16 07:21:12;;;;;;;16.90;15.20;;;17.20;99.90;;;;;;5093389;28;21017;-72
2023/06/16 07:23:38;;;;;;;20.43;16.60;;;17.20;99.90;;;;;;5093609;28;20411;-69
2023/06/16 07:26:04;;;;;;;20.43;16.97;;;17.20;99.90;;;;;;5074280;28;20457;-69
2023/06/16 07:28:29;;;;;;;19.30;15.53;;;17.20;99.90;;;;;;5092848;28;20773;-69
2023/06/16 07:30:55;;;;;;;22.40;16.43;;;17.20;99.90;;;;;;5093345;28;20201;-70
2023/06/16 07:33:21;;;;;;;18.67;16.07;;;17.10;99.90;;;;;;5093431;28;20252;-71
2023/06/16 07:35:48;;;;;;;24.87;16.73;;;17.10;99.90;;;;;;5076135;28;20415;-69
2023/06/16 07:38:15;;;;;;;19.30;17.13;;;17.10;99.90;;;;;;5094083;28;20410;-69
2023/06/16 07:40:41;;;;;;;19.37;17.33;;;17.00;99.90;;;;;;5091698;28;20876;-69
2023/06/16 07:43:10;;;;;;;26.83;16.60;;;17.10;99.90;;;;;;5094045;28;20919;-70
2023/06/16 07:45:57;;;;;;;20.23;16.77;;;17.30;99.90;;;;;;5094085;28;20461;-68
2023/06/16 07:48:22;;;;;;;19.87;16.27;;;17.40;99.90;;;;;;5093198;28;20428;-69
2023/06/16 07:50:48;;;;;;;18.00;15.83;;;17.60;99.90;;;;;;5091940;28;20420;-71
2023/06/16 07:53:48;;;;;;;20.33;17.70;;;17.60;99.90;;;;;;5093787;28;20423;-69
2023/06/16 08:06:07;;;;;;;18.70;15.30;;;18.10;99.90;;;;;;5073409;28;20943;-68
2023/06/16 08:08:32;;;;;;;16.90;15.20;;;18.20;99.90;;;;;;5062407;28;20935;-71
2023/06/16 08:11:07;;;;;;;21.17;15.47;;;18.20;98.70;;;;;;5091541;28;20433;-69
2023/06/16 08:13:33;;;;;;;19.73;15.57;;;18.40;99.90;;;;;;5092121;28;20453;-69
2023/06/16 08:16:01;;;;;;;16.83;15.07;;;18.40;95.20;;;;;;5091940;28;20509;-72
2023/06/16 08:18:37;;;;;;;;;;;;;;;;;;;;;
2023/06/16 08:21:06;;;;;;;19.57;15.40;;;18.70;95.20;;;;;;5092324;28;20823;-69
2023/06/16 08:23:32;;;;;;;17.37;15.20;;;18.90;95.30;;;;;;5093451;28;20427;-69
2023/06/16 08:26:13;;;;;;;17.23;13.67;;;19.00;79.30;;;;;;5074800;28;20485;-69
2023/06/16 08:28:40;;;;;;;15.53;13.50;;;19.20;66.30;;;;;;5074474;28;20415;-72
2023/06/16 08:31:06;;;;;;;16.83;12.60;;;19.40;69.00;;;;;;5092201;28;20412;-69
2023/06/16 08:33:32;;;;;;;15.97;13.70;;;19.60;37.80;;;;;;5092757;28;20424;-68
2023/06/16 08:36:21;;;;;;;14.63;13.13;;;19.70;7.70;;;;;;5092664;28;20430;-71
2023/06/16 08:39:02;;;;;;;12.77;11.53;;;19.90;1.00;;;;;;5090835;28;20466;-68
2023/06/16 08:45:08;;;;;;;13.53;10.67;;;20.10;1.00;;;;;;5091987;28;20470;-68
2023/06/16 08:47:54;;;;;;;12.60;11.30;;;20.10;1.00;;;;;;5093027;28;20792;-68
2023/06/16 08:50:24;;;;;;;11.93;10.77;;;20.00;1.00;;;;;;5068762;28;20923;-67
2023/06/16 08:52:52;;;;;;;11.97;10.67;;;19.90;1.00;;;;;;5075169;28;20896;-68
2023/06/16 08:55:29;;;;;;;15.50;11.17;;;20.00;1.00;;;;;;5076853;28;20454;-70
2023/06/16 08:58:42;;;;;;;13.00;10.83;;;20.10;1.00;;;;;;5072645;28;20468;-68
2023/06/16 09:00:53;;;;;;;;;;;;;;;;;;;;;
2023/06/16 09:03:25;;;;;;;12.47;11.17;;;20.50;1.00;;;;;;5091973;28;20427;-71
2023/06/16 09:06:55;;;;;;;12.20;11.00;;;20.60;1.00;;;;;;5092912;28;21002;-68
2023/06/16 09:09:31;;;;;;;10.80;9.70;;;20.80;1.00;;;;;;5057461;28;20526;-69
2023/06/16 09:12:12;;;;;;;11.70;10.60;;;20.80;1.00;;;;;;5081681;28;20463;-70
2023/06/16 09:15:01;;;;;;;11.10;9.93;;;20.80;1.00;;;;;;5072534;28;20424;-70
2023/06/16 09:17:29;;;;;;;14.17;10.00;;;21.00;1.00;;;;;;5091769;28;20491;-68
2023/06/16 09:20:06;;;;;;;10.83;9.83;;;21.00;1.00;;;;;;5090512;28;20451;-71
2023/06/16 09:22:32;;;;;;;11.10;10.10;;;21.10;1.00;;;;;;5077068;28;20513;-71
2023/06/16 09:25:05;;;;;;;11.00;9.90;;;21.10;1.00;;;;;;5092706;28;20411;-71
2023/06/16 09:27:45;;;;;;;11.70;9.57;;;21.20;1.00;;;;;;5091784;28;20424;-71
2023/06/16 09:30:13;;;;;;;11.10;10.00;;;21.40;1.00;;;;;;5091890;28;20399;-68
2023/06/16 09:32:51;;;;;;;10.70;9.70;;;21.70;1.00;;;;;;5092436;28;20400;-71
2023/06/16 09:35:24;;;;;;;11.60;10.40;;;21.90;1.00;;;;;;5089562;28;20427;-68
2023/06/16 09:37:53;;;;;;;10.87;9.87;;;21.90;1.00;;;;;;5088305;28;20769;-69
2023/06/16 09:40:28;;;;;;;11.30;10.07;;;22.00;1.00;;;;;;5073250;28;21032;-71
2023/06/16 09:43:07;;;;;;;13.73;9.30;;;22.00;1.00;;;;;;5092582;28;20451;-68
2023/06/16 09:45:33;;;;;;;9.20;8.37;;;22.00;1.00;;;;;;5092996;28;20430;-71
2023/06/16 09:48:04;;;;;;;10.63;8.63;;;21.90;1.00;;;;;;5096135;28;20446;-68
2023/06/16 09:50:31;;;;;;;9.20;8.30;;;22.00;1.00;;;;;;5077099;28;20465;-69
2023/06/16 09:52:57;;;;;;;14.30;8.40;;;22.00;1.00;;;;;;5093098;28;20504;-67
2023/06/16 09:55:27;;;;;;;9.70;8.60;;;22.00;1.00;;;;;;5095921;28;20461;-70
2023/06/16 09:57:53;;;;;;;9.67;8.40;;;22.00;1.00;;;;;;5095701;28;20395;-69
2023/06/16 10:00:20;;;;;;;10.80;8.20;;;22.10;1.00;;;;;;5076743;28;20443;-68
2023/06/16 10:02:50;;;;;;;9.20;8.17;;;22.10;1.00;;;;;;5095861;28;20480;-67
2023/06/16 10:05:18;;;;;;;9.30;8.37;;;22.10;1.00;;;;;;5096050;28;20757;-70
2023/06/16 10:07:53;;;;;;;12.53;8.13;;;22.10;1.00;;;;;;5069143;28;20428;-70
2023/06/16 10:10:31;;;;;;;10.90;9.80;;;22.10;1.00;;;;;;5075570;28;20532;-70
2023/06/16 10:12:57;;;;;;;9.67;8.77;;;22.20;1.00;;;;;;5075641;28;20424;-70
2023/06/16 10:15:25;;;;;;;8.47;7.77;;;22.30;1.00;;;;;;5075546;28;20420;-70
2023/06/16 10:17:53;;;;;;;7.80;7.00;;;22.40;1.00;;;;;;5074995;28;20428;-70
2023/06/16 10:20:22;;;;;;;7.00;6.40;;;22.60;1.00;;;;;;5074318;28;20440;-70
2023/06/16 10:22:49;;;;;;;9.17;7.87;;;22.70;1.00;;;;;;5095356;28;20419;-70
2023/06/16 10:25:14;;;;;;;11.53;8.37;;;22.70;1.00;;;;;;5095607;28;20479;-72
2023/06/16 10:27:41;;;;;;;7.87;7.10;;;22.70;1.00;;;;;;5090802;28;20845;-68
2023/06/16 10:30:16;;;;;;;8.40;7.60;;;22.60;1.00;;;;;;5073095;28;20196;-71
2023/06/16 10:32:49;;;;;;;7.93;7.13;;;22.40;1.00;;;;;;5075131;28;20400;-72
2023/06/16 10:35:17;;;;;;;8.93;8.03;;;22.40;99.90;;;;;;5075779;28;20503;-68
2023/06/16 10:37:47;;;;;;;10.00;7.50;;;22.40;99.90;;;;;;5094771;28;20411;-71
2023/06/16 10:40:14;;;;;;;7.67;7.10;;;22.50;1.00;;;;;;5094330;28;20878;-72
2023/06/16 10:42:41;;;;;;;7.80;7.10;;;22.30;99.90;;;;;;5095166;28;20396;-68
2023/06/16 10:45:26;;;;;;;9.53;7.43;;;22.30;99.90;;;;;;5090483;28;20423;-69
2023/06/16 10:47:59;;;;;;;11.20;8.40;;;22.30;99.90;;;;;;5074795;28;20470;-69
2023/06/16 10:50:32;;;;;;;9.83;8.07;;;22.10;99.90;;;;;;5087249;28;21286;-71
2023/06/16 10:53:10;;;;;;;8.47;7.67;;;22.10;99.90;;;;;;5093571;28;20443;-70
2023/06/16 10:55:39;;;;;;;10.90;8.43;;;22.10;99.90;;;;;;5094762;28;20814;-71
2023/06/16 10:58:20;;;;;;;8.47;7.70;;;22.10;99.90;;;;;;5076617;28;20416;-71
2023/06/16 11:00:58;;;;;;;9.93;8.93;;;22.00;99.90;;;;;;5093957;28;20447;-68
2023/06/16 11:03:35;;;;;;;8.70;6.97;;;22.00;99.90;;;;;;5091033;28;20940;-68
2023/06/16 11:06:02;;;;;;;11.40;7.43;;;22.00;99.90;;;;;;5084914;28;20441;-68
2023/06/16 11:08:28;;;;;;;8.10;7.30;;;22.10;99.90;;;;;;5075786;28;20431;-69
2023/06/16 11:11:07;;;;;;;9.50;7.20;;;22.20;99.90;;;;;;5094038;28;20431;-68
2023/06/16 11:13:40;;;;;;;8.40;7.60;;;22.20;99.90;;;;;;5094103;28;20501;-71
2023/06/16 11:16:07;;;;;;;7.90;7.17;;;22.30;99.90;;;;;;5094661;28;20912;-71
2023/06/16 11:18:40;;;;;;;8.60;7.07;;;22.30;99.90;;;;;;5092313;28;20407;-68
2023/06/16 11:21:07;;;;;;;7.30;6.60;;;22.40;99.90;;;;;;5089839;28;20463;-71
2023/06/16 11:23:34;;;;;;;13.30;6.93;;;22.40;99.90;;;;;;5094563;28;20859;-71
2023/06/16 11:26:07;;;;;;;8.97;7.03;;;22.50;99.90;;;;;;5094403;28;20399;-68
2023/06/16 11:28:40;;;;;;;7.57;6.83;;;22.30;99.90;;;;;;5094312;28;20408;-69
2023/06/16 11:31:10;;;;;;;10.83;7.40;;;22.30;99.90;;;;;;5089687;28;20514;-72
2023/06/16 11:33:37;;;;;;;8.27;7.43;;;22.40;99.90;;;;;;5068501;28;20443;-69
2023/06/16 11:36:23;;;;;;;7.93;7.33;;;22.40;99.90;;;;;;5094183;28;20399;-68
2023/06/16 11:38:52;;;;;;;7.90;7.30;;;22.40;99.90;;;;;;5059150;28;20958;-68
2023/06/16 11:41:27;;;;;;;7.53;6.93;;;22.40;99.90;;;;;;5075654;28;20512;-71
2023/06/16 11:43:54;;;;;;;8.33;6.80;;;22.50;99.90;;;;;;5089638;28;20461;-69
2023/06/16 11:46:28;;;;;;;6.77;6.20;;;22.50;99.90;;;;;;5093568;28;20455;-69
2023/06/16 11:48:54;;;;;;;10.03;6.03;;;22.50;99.90;;;;;;5091773;28;20939;-69
2023/06/16 11:51:21;;;;;;;6.57;5.50;;;22.50;99.90;;;;;;5074169;28;20432;-68
2023/06/16 11:53:55;;;;;;;7.13;6.37;;;22.60;99.90;;;;;;5093784;28;20449;-70
2023/06/16 11:56:24;;;;;;;11.27;6.40;;;22.50;99.90;;;;;;5093881;28;20406;-70
2023/06/16 11:58:52;;;;;;;9.30;6.53;;;22.50;99.90;;;;;;5093766;28;20442;-69
2023/06/16 12:01:18;;;;;;;7.90;7.00;;;22.40;99.90;;;;;;5067903;28;20513;-68
2023/06/16 12:03:45;;;;;;;12.20;8.50;;;22.50;99.90;;;;;;5089972;28;20830;-68
2023/06/16 12:06:12;;;;;;;12.20;8.13;;;22.60;99.90;;;;;;5093697;28;20161;-68
2023/06/16 12:08:44;;;;;;;9.30;8.40;;;22.60;99.90;;;;;;5092521;28;20406;-71
2023/06/16 12:11:17;;;;;;;8.67;7.30;;;22.80;99.90;;;;;;5092573;28;20396;-68
2023/06/16 12:13:42;;;;;;;9.90;8.27;;;23.00;99.90;;;;;;5075255;28;20799;-67
2023/06/16 12:16:11;;;;;;;9.70;7.97;;;23.10;99.90;;;;;;5093539;28;20411;-69
2023/06/16 12:18:37;;;;;;;10.60;9.20;;;23.10;99.90;;;;;;5083630;28;20253;-70
2023/06/16 12:21:17;;;;;;;12.77;8.77;;;23.20;99.90;;;;;;5072205;28;20535;-70
2023/06/16 12:23:58;;;;;;;11.50;7.67;;;23.50;99.90;;;;;;5073176;28;20405;-70
2023/06/16 12:26:39;;;;;;;13.77;7.07;;;23.60;99.90;;;;;;5098128;28;20407;-68
2023/06/16 12:29:11;;;;;;;8.27;7.43;;;23.70;99.90;;;;;;5096984;28;20761;-69
2023/06/16 12:31:48;;;;;;;8.10;7.00;;;23.80;99.90;;;;;;5090075;28;20423;-69
2023/06/16 12:34:25;;;;;;;8.57;7.40;;;23.70;99.90;;;;;;5074304;28;20615;-68
2023/06/16 12:36:52;;;;;;;9.53;6.80;;;23.70;99.90;;;;;;5092832;28;20411;-69
2023/06/16 12:39:20;;;;;;;7.93;7.03;;;23.80;99.90;;;;;;5075100;28;20415;-69
2023/06/16 12:42:12;;;;;;;8.00;7.30;;;23.80;99.90;;;;;;5092171;28;20399;-69
2023/06/16 12:44:42;;;;;;;10.17;6.63;;;24.00;99.90;;;;;;5089729;28;20951;-68
2023/06/16 12:47:08;;;;;;;7.53;6.80;;;24.10;99.90;;;;;;5090896;28;20462;-70
2023/06/16 12:49:34;;;;;;;8.27;6.17;;;24.20;99.90;;;;;;5074913;28;20415;-69
2023/06/16 12:52:01;;;;;;;6.80;6.30;;;24.20;99.90;;;;;;5088230;28;20412;-69
2023/06/16 12:54:27;;;;;;;7.90;7.10;;;24.20;99.90;;;;;;5074877;28;20681;-68
2023/06/16 12:56:53;;;;;;;10.07;7.90;;;24.20;99.90;;;;;;5093090;28;20403;-70
2023/06/16 12:59:18;;;;;;;7.67;6.43;;;24.20;99.90;;;;;;5090209;28;20438;-70
2023/06/16 13:01:45;;;;;;;6.63;6.00;;;24.10;99.90;;;;;;5089437;28;20162;-69
2023/06/16 13:04:11;;;;;;;7.90;6.10;;;24.10;99.90;;;;;;5089860;28;20194;-67
2023/06/16 13:06:41;;;;;;;6.60;6.00;;;24.20;99.90;;;;;;5092970;28;20412;-68
2023/06/16 13:09:06;;;;;;;8.23;7.37;;;24.20;99.90;;;;;;5087610;28;20166;-68
2023/06/16 13:11:34;;;;;;;7.40;6.60;;;24.30;99.90;;;;;;5071804;28;20404;-68